createdAt,value
2019-02-07T00:00:33.665Z,6.20
2019-02-07T00:05:26.533Z,6.10
2019-02-07T00:10:19.926Z,6.10
2019-02-07T00:15:13.908Z,6.00
2019-02-07T00:20:07.904Z,6.00
2019-02-07T00:25:00.772Z,6.00
2019-02-07T00:29:53.973Z,6.00
2019-02-07T00:34:46.827Z,6.00
2019-02-07T00:39:39.728Z,6.00
2019-02-07T00:44:32.578Z,6.00
2019-02-07T00:49:25.547Z,5.90
2019-02-07T00:54:18.785Z,5.90
2019-02-07T00:59:11.643Z,5.70
2019-02-07T01:04:04.710Z,5.40
2019-02-07T01:08:57.558Z,5.20
2019-02-07T01:13:50.813Z,4.90
2019-02-07T01:18:43.636Z,4.60
2019-02-07T01:23:36.529Z,4.50
2019-02-07T01:28:29.446Z,4.40
2019-02-07T01:33:22.721Z,4.40
2019-02-07T01:38:15.772Z,4.30
2019-02-07T01:43:08.659Z,4.20
2019-02-07T01:48:01.948Z,4.10
2019-02-07T01:52:55.243Z,4.00
2019-02-07T01:57:48.093Z,4.00
2019-02-07T02:02:41.176Z,3.90
2019-02-07T02:07:34.055Z,3.90
2019-02-07T02:12:27.326Z,3.90
2019-02-07T02:17:20.219Z,3.90
2019-02-07T02:22:14.341Z,3.90
2019-02-07T02:27:08.938Z,3.80
2019-02-07T02:32:02.534Z,3.80
2019-02-07T02:36:55.405Z,3.80
2019-02-07T02:41:48.255Z,3.80
2019-02-07T02:46:41.233Z,3.80
2019-02-07T02:51:34.519Z,3.80
2019-02-07T02:56:27.402Z,3.80
2019-02-07T03:01:45.954Z,3.80
2019-02-07T03:06:57.162Z,3.90
2019-02-07T03:12:21.894Z,3.90
2019-02-07T03:17:46.420Z,3.90
2019-02-07T03:22:55.373Z,3.90
2019-02-07T03:28:01.266Z,3.90
2019-02-07T03:33:14.085Z,4.00
2019-02-07T03:38:20.620Z,4.00
2019-02-07T03:43:29.099Z,4.00
2019-02-07T03:48:44.643Z,4.10
2019-02-07T03:53:55.785Z,4.10
2019-02-07T03:59:08.219Z,4.10
2019-02-07T04:04:23.652Z,4.10
2019-02-07T04:09:40.472Z,4.10
2019-02-07T04:14:51.763Z,4.20
2019-02-07T04:20:06.304Z,4.20
2019-02-07T04:25:22.008Z,4.20
2019-02-07T04:30:33.747Z,4.30
2019-02-07T04:35:49.229Z,4.30
2019-02-07T04:41:10.701Z,4.40
2019-02-07T04:46:26.386Z,4.40
2019-02-07T04:51:41.898Z,4.50
2019-02-07T04:56:46.338Z,4.50
2019-02-07T05:02:07.774Z,4.50
2019-02-07T05:07:32.541Z,4.50
2019-02-07T05:12:57.044Z,4.50
2019-02-07T05:18:08.119Z,4.60
2019-02-07T05:23:23.751Z,4.70
2019-02-07T05:28:34.846Z,4.80
2019-02-07T05:33:56.691Z,4.90
2019-02-07T05:39:05.107Z,4.90
2019-02-07T05:44:16.509Z,4.80
2019-02-07T05:49:18.579Z,4.90
2019-02-07T05:54:36.687Z,4.90
2019-02-07T05:59:54.652Z,5.00
2019-02-07T06:05:05.657Z,5.10
2019-02-07T06:10:24.376Z,5.10
2019-02-07T06:15:43.017Z,5.20
2019-02-07T06:20:55.747Z,5.30
2019-02-07T06:26:11.525Z,5.40
2019-02-07T06:31:13.322Z,5.40
2019-02-07T06:36:24.824Z,5.50
2019-02-07T06:41:46.685Z,5.50
2019-02-07T06:46:57.639Z,5.60
2019-02-07T06:52:02.600Z,5.70
2019-02-07T06:57:16.952Z,5.80
2019-02-07T07:02:38.107Z,6.00
2019-02-07T07:08:06.463Z,6.30
2019-02-07T07:13:24.780Z,6.40
2019-02-07T07:18:40.503Z,6.50
2019-02-07T07:23:56.109Z,6.60
2019-02-07T07:29:07.566Z,6.60
2019-02-07T07:34:20.031Z,6.50
2019-02-07T07:39:31.328Z,6.50
2019-02-07T07:44:59.142Z,6.50
2019-02-07T07:50:27.122Z,6.50
2019-02-07T07:55:42.392Z,6.60
2019-02-07T08:00:58.873Z,6.60
2019-02-07T08:06:11.337Z,6.70
2019-02-07T08:11:22.781Z,6.70
2019-02-07T08:16:34.237Z,6.80
2019-02-07T08:21:44.482Z,6.90
2019-02-07T08:26:49.749Z,7.10
2019-02-07T08:32:04.485Z,7.20
2019-02-07T08:37:17.154Z,7.40
2019-02-07T08:42:28.368Z,7.70
2019-02-07T08:47:39.310Z,7.90
2019-02-07T08:52:55.081Z,8.00
2019-02-07T08:57:56.748Z,8.20
2019-02-07T09:03:01.455Z,8.30
2019-02-07T09:08:16.995Z,8.40
2019-02-07T09:13:17.828Z,8.30
2019-02-07T09:18:21.598Z,8.30
2019-02-07T09:23:34.073Z,8.40
2019-02-07T09:28:49.407Z,8.60
2019-02-07T09:34:04.770Z,8.90
2019-02-07T09:39:20.201Z,9.10
2019-02-07T09:44:26.683Z,9.20
2019-02-07T09:49:45.060Z,9.40
2019-02-07T09:55:06.730Z,9.60
2019-02-07T10:00:08.756Z,9.80
2019-02-07T10:05:19.795Z,9.80
2019-02-07T10:10:32.271Z,10.00
2019-02-07T10:15:38.043Z,10.20
2019-02-07T10:20:59.548Z,10.20
2019-02-07T10:26:21.214Z,10.30
2019-02-07T10:31:31.506Z,10.30
2019-02-07T10:36:43.008Z,10.60
2019-02-07T10:41:54.273Z,10.70
2019-02-07T10:47:05.612Z,11.00
2019-02-07T10:52:35.370Z,11.30
2019-02-07T10:58:00.053Z,11.30
2019-02-07T11:03:11.773Z,11.80
2019-02-07T11:08:30.112Z,12.40
2019-02-07T11:13:46.759Z,12.60
2019-02-07T11:18:55.784Z,12.30
2019-02-07T11:24:11.607Z,12.30
2019-02-07T11:29:33.211Z,12.30
2019-02-07T11:34:47.592Z,12.40
2019-02-07T11:40:03.116Z,12.30
2019-02-07T11:45:27.657Z,11.90
2019-02-07T11:50:50.840Z,11.80
2019-02-07T11:55:55.200Z,12.00
2019-02-07T12:01:12.866Z,11.80
2019-02-07T12:06:31.463Z,11.90
2019-02-07T12:11:54.568Z,11.60
2019-02-07T12:17:14.995Z,11.40
2019-02-07T12:22:26.465Z,12.00
2019-02-07T12:27:38.924Z,12.20
2019-02-07T12:32:38.871Z,11.80
2019-02-07T12:37:43.318Z,11.90
2019-02-07T12:43:10.885Z,11.80
2019-02-07T12:53:35.193Z,12.20
2019-02-07T12:58:46.537Z,12.60
2019-02-07T13:03:59.009Z,12.30
2019-02-07T13:09:10.440Z,12.20
2019-02-07T13:14:23.260Z,12.40
2019-02-07T13:19:39.977Z,12.60
2019-02-07T13:24:49.682Z,12.60
2019-02-07T13:30:01.002Z,12.60
2019-02-07T13:35:12.398Z,12.70
2019-02-07T13:40:26.507Z,13.20
2019-02-07T13:45:32.267Z,13.30
2019-02-07T13:50:56.760Z,12.50
2019-02-07T13:56:25.070Z,12.40
2019-02-07T14:01:36.572Z,12.40
2019-02-07T14:06:38.959Z,12.60
2019-02-07T14:12:00.232Z,12.60
2019-02-07T14:17:10.105Z,12.70
2019-02-07T14:22:21.563Z,12.30
2019-02-07T14:27:32.906Z,12.20
2019-02-07T14:32:57.854Z,12.20
2019-02-07T14:38:01.197Z,12.30
2019-02-07T14:43:12.982Z,12.00
2019-02-07T14:48:06.062Z,12.00
2019-02-07T14:53:01.901Z,11.90
2019-02-07T14:57:53.820Z,11.60
2019-02-07T15:02:46.803Z,11.60
2019-02-07T15:07:40.019Z,11.40
2019-02-07T15:12:32.905Z,11.30
2019-02-07T15:17:27.451Z,11.20
2019-02-07T15:22:20.725Z,11.10
2019-02-07T15:27:13.600Z,10.90
2019-02-07T15:32:06.618Z,10.80
2019-02-07T15:36:59.480Z,10.90
2019-02-07T15:41:52.342Z,10.80
2019-02-07T15:46:45.312Z,10.80
2019-02-07T15:51:38.865Z,10.70
2019-02-07T15:56:31.901Z,10.50
2019-02-07T16:01:47.708Z,10.40
2019-02-07T16:06:40.572Z,10.40
2019-02-07T16:11:33.887Z,10.30
2019-02-07T16:16:26.742Z,10.10
2019-02-07T16:21:19.614Z,9.90
2019-02-07T16:26:12.484Z,9.80
2019-02-07T16:31:07.549Z,9.80
2019-02-07T16:36:00.442Z,9.80
2019-02-07T16:40:53.454Z,9.80
2019-02-07T16:45:46.728Z,9.60
2019-02-07T16:50:39.629Z,9.60
2019-02-07T16:55:32.516Z,9.60
2019-02-07T17:00:27.051Z,9.80
2019-02-07T17:05:22.440Z,9.80
2019-02-07T17:10:20.058Z,9.90
2019-02-07T17:15:14.269Z,9.80
2019-02-07T17:20:14.956Z,9.30
2019-02-07T17:25:08.205Z,9.00
2019-02-07T17:30:01.106Z,8.70
2019-02-07T17:34:53.927Z,8.50
2019-02-07T17:39:47.312Z,8.50
2019-02-07T17:44:40.293Z,8.50
2019-02-07T17:49:33.203Z,8.50
2019-02-07T17:54:26.094Z,8.50
2019-02-07T17:59:20.855Z,8.50
2019-02-07T18:04:13.725Z,8.60
2019-02-07T18:09:08.711Z,8.50
2019-02-07T18:14:01.535Z,8.40
2019-02-07T18:18:54.473Z,8.30
2019-02-07T18:23:47.328Z,8.40
2019-02-07T18:28:40.235Z,8.20
2019-02-07T18:33:33.322Z,8.00
2019-02-07T18:38:26.199Z,7.70
2019-02-07T18:43:19.056Z,7.60
2019-02-07T18:48:11.943Z,7.40
2019-02-07T18:53:05.636Z,7.30
2019-02-07T18:57:58.571Z,7.10
2019-02-07T19:02:51.487Z,7.00
2019-02-07T19:07:44.561Z,6.90
2019-02-07T19:12:37.489Z,6.90
2019-02-07T19:17:30.358Z,7.00
2019-02-07T19:22:23.259Z,6.90
2019-02-07T19:27:16.123Z,7.10
2019-02-07T19:32:09.000Z,7.20
2019-02-07T19:37:03.692Z,7.30
2019-02-07T19:41:56.770Z,7.40
2019-02-07T19:46:49.673Z,7.30
2019-02-07T19:51:42.548Z,7.40
2019-02-07T19:56:35.487Z,7.40
2019-02-07T20:01:28.762Z,7.50
2019-02-07T20:06:21.640Z,7.50
2019-02-07T20:11:14.495Z,7.60
2019-02-07T20:16:08.651Z,7.60
2019-02-07T20:21:01.515Z,7.40
2019-02-07T20:25:54.736Z,7.60
2019-02-07T20:35:42.039Z,7.60
2019-02-07T20:40:34.939Z,7.60
2019-02-07T20:45:28.140Z,7.60
2019-02-07T20:50:23.553Z,7.50
2019-02-07T20:55:16.858Z,7.50
2019-02-07T21:00:35.592Z,7.60
2019-02-07T21:05:30.360Z,7.50
2019-02-07T21:10:24.675Z,7.50
2019-02-07T21:15:18.978Z,7.50
2019-02-07T21:20:16.894Z,7.60
2019-02-07T21:25:19.886Z,7.60
2019-02-07T21:30:17.398Z,7.60
2019-02-07T21:35:14.237Z,7.60
2019-02-07T21:40:10.886Z,7.50
2019-02-07T21:45:06.860Z,7.60
2019-02-07T21:50:04.140Z,7.60
2019-02-07T21:54:57.191Z,7.60
2019-02-07T21:59:50.067Z,7.60
2019-02-07T22:04:43.855Z,7.60
2019-02-07T22:09:40.248Z,7.60
2019-02-07T22:14:33.116Z,7.60
2019-02-07T22:19:26.423Z,7.60
2019-02-07T22:24:19.682Z,7.70
2019-02-07T22:29:14.476Z,7.70
2019-02-07T22:34:11.292Z,7.70
2019-02-07T22:39:07.102Z,7.60
2019-02-07T22:43:59.961Z,7.60
2019-02-07T22:48:52.850Z,7.50
2019-02-07T22:53:45.728Z,7.40
2019-02-07T22:58:38.615Z,7.30
2019-02-07T23:03:31.557Z,7.40
2019-02-07T23:08:24.564Z,7.20
2019-02-07T23:13:18.641Z,7.00
2019-02-07T23:18:11.822Z,6.70
2019-02-07T23:23:05.784Z,6.50
2019-02-07T23:27:59.180Z,6.40
2019-02-07T23:32:57.916Z,6.30
2019-02-07T23:37:53.171Z,6.30
2019-02-07T23:42:49.271Z,6.10
2019-02-07T23:47:43.773Z,6.00
2019-02-07T23:52:36.765Z,5.90
2019-02-07T23:57:29.783Z,5.80
